Time;durP1;ratioP1;P1;durP2;ratioP2;P2;SDS_P1;SDS_P2;PMS_P1;PMS_P2;Temp;Humidity;BMP_temperature;BMP_pressure;BME280_temperature;BME280_humidity;BME280_pressure;Samples;Min_cycle;Max_cycle;Signal;HPM_P1;HPM_P2
2021/10/10 00:00:26;;;;;;;0.10;0.10;;;;;;;;;;5065457;28;20225;-73
2021/10/10 00:02:52;;;;;;;0.10;0.10;;;;;;;;;;5065200;28;20562;-74
2021/10/10 00:05:19;;;;;;;0.10;0.10;;;;;;;;;;5065375;28;20213;-73
2021/10/10 00:07:47;;;;;;;0.10;0.10;;;;;;;;;;5065400;28;20198;-74
2021/10/10 00:10:14;;;;;;;0.13;0.13;;;;;;;;;;5065592;28;20213;-73
2021/10/10 00:12:41;;;;;;;0.10;0.10;;;;;;;;;;5065307;28;20201;-73
2021/10/10 00:15:08;;;;;;;0.10;0.10;;;;;;;;;;5065820;28;20206;-73
2021/10/10 00:17:34;;;;;;;0.10;0.10;;;;;;;;;;5065534;28;20369;-72
2021/10/10 00:20:01;;;;;;;0.10;0.10;;;;;;;;;;5057793;28;20278;-73
2021/10/10 00:22:27;;;;;;;0.10;0.10;;;;;;;;;;5065697;28;20246;-72
2021/10/10 00:24:55;;;;;;;0.10;0.10;;;;;;;;;;5065340;28;20201;-73
2021/10/10 00:27:21;;;;;;;0.17;0.17;;;;;;;;;;5065665;28;20489;-73
2021/10/10 00:29:49;;;;;;;0.10;0.10;;;;;;;;;;5047292;28;20210;-73
2021/10/10 00:32:15;;;;;;;0.20;0.20;;;;;;;;;;5045415;28;20206;-72
2021/10/10 00:34:41;;;;;;;0.10;0.10;;;;;;;;;;5045388;28;20397;-73
2021/10/10 00:37:07;;;;;;;0.10;0.10;;;;;;;;;;5045615;28;20205;-73
2021/10/10 00:39:34;;;;;;;0.10;0.10;;;;;;;;;;5045509;28;20450;-73
2021/10/10 00:42:01;;;;;;;1.60;1.60;;;;;;;;;;5044874;28;20285;-72
2021/10/10 00:44:28;;;;;;;0.10;0.10;;;;;;;;;;5049484;28;20277;-73
2021/10/10 00:46:54;;;;;;;0.20;0.20;;;;;;;;;;5065342;28;20213;-74
2021/10/10 00:49:20;;;;;;;0.10;0.10;;;;;;;;;;5048623;28;20207;-73
2021/10/10 00:51:47;;;;;;;0.10;0.10;;;;;;;;;;5044804;28;20201;-73
2021/10/10 00:54:14;;;;;;;0.10;0.10;;;;;;;;;;5044880;28;20551;-72
2021/10/10 00:56:40;;;;;;;0.10;0.10;;;;;;;;;;5045181;28;20213;-71
2021/10/10 00:59:09;;;;;;;0.10;0.10;;;;;;;;;;5045076;28;20216;-74
2021/10/10 01:01:36;;;;;;;0.10;0.10;;;;;;;;;;5044902;28;20223;-73
2021/10/10 01:04:02;;;;;;;0.10;0.10;;;;;;;;;;5044679;28;20287;-74
2021/10/10 01:06:29;;;;;;;0.17;0.17;;;;;;;;;;5058568;28;20205;-73
2021/10/10 01:08:55;;;;;;;0.10;0.10;;;;;;;;;;5044962;28;20462;-73
2021/10/10 01:11:21;;;;;;;0.10;0.10;;;;;;;;;;5058524;28;20248;-73
2021/10/10 01:13:47;;;;;;;0.17;0.17;;;;;;;;;;5064303;28;20205;-73
2021/10/10 01:16:15;;;;;;;0.20;0.20;;;;;;;;;;5064627;28;20205;-73
2021/10/10 01:18:41;;;;;;;0.10;0.10;;;;;;;;;;5064687;28;20223;-72
2021/10/10 01:21:09;;;;;;;0.10;0.10;;;;;;;;;;5064918;28;20230;-73
2021/10/10 01:23:35;;;;;;;0.10;0.10;;;;;;;;;;5064348;28;20401;-74
2021/10/10 01:26:01;;;;;;;0.10;0.10;;;;;;;;;;5064476;28;20208;-71
2021/10/10 01:28:27;;;;;;;0.10;0.10;;;;;;;;;;5064375;28;20201;-73
2021/10/10 01:30:54;;;;;;;0.10;0.10;;;;;;;;;;5064033;28;20200;-73
2021/10/10 01:33:20;;;;;;;0.10;0.10;;;;;;;;;;5064232;28;20262;-73
2021/10/10 01:35:46;;;;;;;0.20;0.20;;;;;;;;;;5064026;28;20212;-72
2021/10/10 01:38:17;;;;;;;0.20;0.20;;;;;;;;;;5064214;28;20476;-72
2021/10/10 01:40:45;;;;;;;0.10;0.10;;;;;;;;;;5044213;28;20217;-72
2021/10/10 01:43:11;;;;;;;0.20;0.20;;;;;;;;;;5056723;28;20211;-73
2021/10/10 01:45:38;;;;;;;0.10;0.10;;;;;;;;;;5063219;28;20201;-73
2021/10/10 01:48:04;;;;;;;0.10;0.10;;;;;;;;;;5063804;28;20255;-73
2021/10/10 01:50:31;;;;;;;0.20;0.20;;;;;;;;;;5063847;28;20200;-72
2021/10/10 01:52:58;;;;;;;0.10;0.10;;;;;;;;;;5063831;28;20428;-73
2021/10/10 01:55:25;;;;;;;0.20;0.20;;;;;;;;;;5063645;28;20206;-72
2021/10/10 01:57:51;;;;;;;0.20;0.20;;;;;;;;;;5063802;28;20548;-74
2021/10/10 02:00:18;;;;;;;0.20;0.20;;;;;;;;;;5063888;28;20248;-74
2021/10/10 02:02:44;;;;;;;0.17;0.17;;;;;;;;;;5063469;28;20495;-73
2021/10/10 02:05:11;;;;;;;0.10;0.10;;;;;;;;;;5063406;28;20237;-74
2021/10/10 02:07:38;;;;;;;0.10;0.10;;;;;;;;;;5063648;28;20491;-74
2021/10/10 02:10:05;;;;;;;0.20;0.20;;;;;;;;;;5063346;28;20201;-74
2021/10/10 02:12:32;;;;;;;0.10;0.10;;;;;;;;;;5063267;28;20201;-73
2021/10/10 02:14:58;;;;;;;0.17;0.17;;;;;;;;;;5063371;28;20204;-74
2021/10/10 02:17:25;;;;;;;0.10;0.10;;;;;;;;;;5051948;28;20251;-74
2021/10/10 02:19:52;;;;;;;0.20;0.20;;;;;;;;;;5061428;28;20223;-73
2021/10/10 02:22:18;;;;;;;0.20;0.20;;;;;;;;;;5063296;28;20255;-73
2021/10/10 02:24:45;;;;;;;0.20;0.20;;;;;;;;;;5063418;28;20518;-73
2021/10/10 02:27:11;;;;;;;0.10;0.10;;;;;;;;;;5063395;28;20226;-74
2021/10/10 02:29:38;;;;;;;0.20;0.20;;;;;;;;;;5063267;28;20261;-72
2021/10/10 02:32:05;;;;;;;0.20;0.20;;;;;;;;;;5063060;28;20254;-73
2021/10/10 02:34:31;;;;;;;0.13;0.13;;;;;;;;;;5063327;28;20231;-74
2021/10/10 02:36:57;;;;;;;0.10;0.10;;;;;;;;;;5063110;28;20218;-73
2021/10/10 02:39:23;;;;;;;0.10;0.10;;;;;;;;;;5054375;28;20280;-72
2021/10/10 02:41:49;;;;;;;0.20;0.20;;;;;;;;;;5048885;28;20527;-72
2021/10/10 02:44:16;;;;;;;0.20;0.20;;;;;;;;;;5053346;28;20207;-74
2021/10/10 02:46:43;;;;;;;0.10;0.10;;;;;;;;;;5052986;28;20238;-72
2021/10/10 02:49:09;;;;;;;0.10;0.10;;;;;;;;;;5052685;28;20230;-71
2021/10/10 02:51:36;;;;;;;0.20;0.20;;;;;;;;;;5050029;28;20297;-72
2021/10/10 02:54:02;;;;;;;0.10;0.10;;;;;;;;;;5050087;28;20251;-73
2021/10/10 02:56:28;;;;;;;0.20;0.20;;;;;;;;;;5051303;28;20212;-73
2021/10/10 02:58:54;;;;;;;0.10;0.10;;;;;;;;;;5053724;28;20318;-74
2021/10/10 03:01:20;;;;;;;0.17;0.17;;;;;;;;;;5056365;28;20270;-72
2021/10/10 03:03:48;;;;;;;0.20;0.20;;;;;;;;;;5056119;28;20242;-73
2021/10/10 03:06:14;;;;;;;0.10;0.10;;;;;;;;;;5051283;28;20214;-74
2021/10/10 03:08:40;;;;;;;0.10;0.10;;;;;;;;;;5055997;28;20210;-71
2021/10/10 03:11:06;;;;;;;0.20;0.20;;;;;;;;;;5051067;28;20207;-74
2021/10/10 03:13:33;;;;;;;0.10;0.10;;;;;;;;;;5052511;28;20212;-73
2021/10/10 03:15:59;;;;;;;0.10;0.10;;;;;;;;;;5050721;28;20231;-72
2021/10/10 03:18:25;;;;;;;0.10;0.10;;;;;;;;;;5045832;28;20273;-71
2021/10/10 03:20:53;;;;;;;0.20;0.20;;;;;;;;;;5050321;28;20580;-73
2021/10/10 03:23:19;;;;;;;0.20;0.20;;;;;;;;;;5052799;28;20211;-73
2021/10/10 03:25:46;;;;;;;0.20;0.20;;;;;;;;;;5049195;28;20204;-73
2021/10/10 03:28:12;;;;;;;0.20;0.20;;;;;;;;;;5053058;28;20269;-72
2021/10/10 03:30:38;;;;;;;0.10;0.10;;;;;;;;;;5051692;28;20202;-73
2021/10/10 03:33:04;;;;;;;0.10;0.10;;;;;;;;;;5054513;28;20283;-72
2021/10/10 03:35:30;;;;;;;0.10;0.10;;;;;;;;;;5055742;28;20207;-73
2021/10/10 03:37:58;;;;;;;0.20;0.20;;;;;;;;;;5052053;28;20496;-72
2021/10/10 03:40:24;;;;;;;0.10;0.10;;;;;;;;;;5055841;28;20208;-73
2021/10/10 03:42:50;;;;;;;0.20;0.20;;;;;;;;;;5051575;28;20229;-72
2021/10/10 03:45:17;;;;;;;0.20;0.20;;;;;;;;;;5053772;28;20235;-72
2021/10/10 03:47:43;;;;;;;0.20;0.20;;;;;;;;;;5048198;28;21037;-73
2021/10/10 03:50:09;;;;;;;0.20;0.20;;;;;;;;;;5050447;28;20216;-73
2021/10/10 03:52:35;;;;;;;0.20;0.20;;;;;;;;;;5053878;28;20249;-73
2021/10/10 03:57:49;;;;;;;0.83;0.83;;;;;;;;;;5044847;28;20191;-69
2021/10/10 04:00:16;;;;;;;0.20;0.20;;;;;;;;;;5043553;28;20422;-70
2021/10/10 04:02:43;;;;;;;0.10;0.10;;;;;;;;;;5049076;28;20263;-72
2021/10/10 04:05:18;;;;;;;0.10;0.10;;;;;;;;;;5049196;28;20232;-72
2021/10/10 04:07:44;;;;;;;0.20;0.20;;;;;;;;;;5050782;28;20215;-69
2021/10/10 04:10:12;;;;;;;0.10;0.10;;;;;;;;;;5055040;28;20216;-74
2021/10/10 04:12:38;;;;;;;0.20;0.20;;;;;;;;;;5049875;28;20423;-73
2021/10/10 04:15:05;;;;;;;0.17;0.17;;;;;;;;;;5045527;28;20208;-73
2021/10/10 04:17:31;;;;;;;0.20;0.20;;;;;;;;;;5049903;28;20378;-72
2021/10/10 04:19:57;;;;;;;0.20;0.20;;;;;;;;;;5049512;28;20206;-72
2021/10/10 04:22:23;;;;;;;0.20;0.20;;;;;;;;;;5056228;28;20223;-73
2021/10/10 04:24:50;;;;;;;0.20;0.20;;;;;;;;;;5050427;28;20204;-73
2021/10/10 04:27:18;;;;;;;0.20;0.20;;;;;;;;;;5058854;28;20229;-74
2021/10/10 04:29:45;;;;;;;0.20;0.20;;;;;;;;;;5044863;28;20459;-73
2021/10/10 04:32:11;;;;;;;0.20;0.20;;;;;;;;;;5049386;28;21045;-72
2021/10/10 04:34:37;;;;;;;0.20;0.20;;;;;;;;;;5057011;28;20250;-73
2021/10/10 04:37:04;;;;;;;0.10;0.10;;;;;;;;;;5057591;28;20212;-72
2021/10/10 04:39:30;;;;;;;0.20;0.20;;;;;;;;;;5051195;28;20202;-72
2021/10/10 04:41:56;;;;;;;0.20;0.20;;;;;;;;;;5052849;28;20232;-71
2021/10/10 04:44:25;;;;;;;0.20;0.20;;;;;;;;;;5060691;28;20316;-73
2021/10/10 04:46:51;;;;;;;0.10;0.10;;;;;;;;;;5054294;28;20349;-72
2021/10/10 04:49:17;;;;;;;0.20;0.20;;;;;;;;;;5056566;28;20310;-72
2021/10/10 04:51:43;;;;;;;0.20;0.20;;;;;;;;;;5045251;28;20204;-72
2021/10/10 04:54:10;;;;;;;0.20;0.20;;;;;;;;;;5048332;28;20200;-71
2021/10/10 04:56:36;;;;;;;0.10;0.10;;;;;;;;;;5052328;28;20242;-71
2021/10/10 04:59:02;;;;;;;0.20;0.20;;;;;;;;;;5055943;28;20201;-72
2021/10/10 05:01:30;;;;;;;0.13;0.13;;;;;;;;;;5062651;28;20208;-72
2021/10/10 05:03:56;;;;;;;1.13;1.13;;;;;;;;;;5058046;28;20234;-72
2021/10/10 05:06:22;;;;;;;0.20;0.20;;;;;;;;;;5052674;28;20216;-74
2021/10/10 05:08:49;;;;;;;0.20;0.20;;;;;;;;;;5056836;28;20231;-74
2021/10/10 05:11:15;;;;;;;0.20;0.20;;;;;;;;;;5049400;28;20424;-72
2021/10/10 05:13:41;;;;;;;0.10;0.10;;;;;;;;;;5053153;28;20633;-73
2021/10/10 05:16:07;;;;;;;0.20;0.20;;;;;;;;;;5054778;28;20230;-72
2021/10/10 05:18:35;;;;;;;0.10;0.10;;;;;;;;;;5061063;28;20211;-73
2021/10/10 05:21:01;;;;;;;0.20;0.20;;;;;;;;;;5046698;28;20207;-70
2021/10/10 05:23:27;;;;;;;0.20;0.20;;;;;;;;;;5057112;28;20277;-73
2021/10/10 05:25:54;;;;;;;0.10;0.10;;;;;;;;;;5053367;28;20227;-73
2021/10/10 05:28:20;;;;;;;0.20;0.20;;;;;;;;;;5046822;28;20212;-72
2021/10/10 05:30:46;;;;;;;0.10;0.10;;;;;;;;;;5049488;28;20204;-72
2021/10/10 05:33:12;;;;;;;1.20;1.20;;;;;;;;;;5054983;28;20221;-72
2021/10/10 05:35:40;;;;;;;0.20;0.20;;;;;;;;;;5054171;28;21283;-72
2021/10/10 05:38:06;;;;;;;0.20;0.20;;;;;;;;;;5052280;28;20277;-74
2021/10/10 05:40:33;;;;;;;0.20;0.20;;;;;;;;;;5053084;28;20257;-72
2021/10/10 05:43:00;;;;;;;0.13;0.13;;;;;;;;;;5043022;28;20225;-74
2021/10/10 05:45:26;;;;;;;0.20;0.20;;;;;;;;;;5051204;28;20210;-72
2021/10/10 05:47:52;;;;;;;0.20;0.20;;;;;;;;;;5049058;28;20310;-72
2021/10/10 05:50:18;;;;;;;0.20;0.20;;;;;;;;;;5054924;28;20223;-73
2021/10/10 05:52:46;;;;;;;0.20;0.20;;;;;;;;;;5050887;28;20208;-72
2021/10/10 05:55:14;;;;;;;0.17;0.17;;;;;;;;;;5049506;28;20204;-72
2021/10/10 05:57:45;;;;;;;0.20;0.20;;;;;;;;;;5052336;28;20215;-72
2021/10/10 06:00:12;;;;;;;0.17;0.17;;;;;;;;;;5052458;28;20267;-74
2021/10/10 06:02:38;;;;;;;0.20;0.20;;;;;;;;;;5051558;28;20232;-73
2021/10/10 06:05:05;;;;;;;0.20;0.20;;;;;;;;;;5049582;28;20241;-71
2021/10/10 06:07:31;;;;;;;0.20;0.20;;;;;;;;;;5054684;28;20208;-74
2021/10/10 06:09:59;;;;;;;0.20;0.20;;;;;;;;;;5047424;28;20211;-72
2021/10/10 06:12:25;;;;;;;0.83;0.83;;;;;;;;;;5052719;28;20390;-73
2021/10/10 06:14:51;;;;;;;0.10;0.10;;;;;;;;;;5055381;28;20211;-72
2021/10/10 06:17:18;;;;;;;0.20;0.20;;;;;;;;;;5050624;28;20287;-72
2021/10/10 06:19:44;;;;;;;0.20;0.20;;;;;;;;;;5045667;28;20219;-73
2021/10/10 06:22:11;;;;;;;0.10;0.10;;;;;;;;;;5053686;28;20422;-71
2021/10/10 06:24:37;;;;;;;0.20;0.20;;;;;;;;;;5046812;28;20215;-73
2021/10/10 06:27:04;;;;;;;0.20;0.20;;;;;;;;;;5050791;28;20203;-72
2021/10/10 06:29:31;;;;;;;0.20;0.20;;;;;;;;;;5048033;28;20508;-72
2021/10/10 06:31:57;;;;;;;0.20;0.20;;;;;;;;;;5045171;28;20201;-72
2021/10/10 06:34:23;;;;;;;0.10;0.10;;;;;;;;;;5043439;28;20619;-71
2021/10/10 06:36:49;;;;;;;0.20;0.20;;;;;;;;;;5050432;28;20242;-72
2021/10/10 06:39:16;;;;;;;0.20;0.20;;;;;;;;;;5049185;28;20210;-73
2021/10/10 06:41:43;;;;;;;0.20;0.20;;;;;;;;;;5047566;28;20247;-73
2021/10/10 06:44:11;;;;;;;0.20;0.20;;;;;;;;;;5050996;28;20622;-73
2021/10/10 06:46:37;;;;;;;0.20;0.20;;;;;;;;;;5055104;28;20532;-70
2021/10/10 06:49:03;;;;;;;0.17;0.17;;;;;;;;;;5050326;28;20478;-73
2021/10/10 06:51:29;;;;;;;0.20;0.20;;;;;;;;;;5051982;28;20202;-72
2021/10/10 06:53:55;;;;;;;0.20;0.20;;;;;;;;;;5051387;28;20216;-73
2021/10/10 06:56:22;;;;;;;0.20;0.20;;;;;;;;;;5053493;28;20258;-73
2021/10/10 06:58:48;;;;;;;0.30;0.30;;;;;;;;;;5041865;28;20212;-73
2021/10/10 07:01:15;;;;;;;0.20;0.20;;;;;;;;;;5050331;28;20459;-73
2021/10/10 07:03:42;;;;;;;0.10;0.10;;;;;;;;;;5044200;28;20235;-72
2021/10/10 07:06:08;;;;;;;0.20;0.20;;;;;;;;;;5050619;28;20201;-72
2021/10/10 07:08:34;;;;;;;2.23;2.17;;;;;;;;;;5047987;28;20208;-72
2021/10/10 07:11:00;;;;;;;0.30;0.30;;;;;;;;;;5054314;28;20203;-73
2021/10/10 07:13:27;;;;;;;0.30;0.30;;;;;;;;;;5046726;28;20203;-72
2021/10/10 07:15:55;;;;;;;0.10;0.10;;;;;;;;;;5046737;28;20511;-74
2021/10/10 07:18:25;;;;;;;0.83;0.83;;;;;;;;;;5050700;28;20223;-73
2021/10/10 07:21:01;;;;;;;0.20;0.20;;;;;;;;;;5048898;28;20220;-73
2021/10/10 07:23:32;;;;;;;0.20;0.20;;;;;;;;;;5046556;28;20230;-72
2021/10/10 07:25:59;;;;;;;3.53;3.33;;;;;;;;;;5051423;28;20310;-72
2021/10/10 07:28:26;;;;;;;0.30;0.30;;;;;;;;;;5053293;28;20208;-74
2021/10/10 07:30:52;;;;;;;0.10;0.10;;;;;;;;;;5050319;28;20498;-73
2021/10/10 07:33:19;;;;;;;0.20;0.20;;;;;;;;;;5063838;28;20283;-72
2021/10/10 07:35:47;;;;;;;0.10;0.10;;;;;;;;;;5049192;28;20206;-72
2021/10/10 07:38:13;;;;;;;0.10;0.10;;;;;;;;;;5052524;28;20269;-73
2021/10/10 07:40:39;;;;;;;0.20;0.20;;;;;;;;;;5051970;28;20305;-73
2021/10/10 07:43:06;;;;;;;0.20;0.20;;;;;;;;;;5052993;28;20617;-73
2021/10/10 07:45:33;;;;;;;0.20;0.20;;;;;;;;;;5058330;28;20210;-73
2021/10/10 07:48:03;;;;;;;0.10;0.10;;;;;;;;;;5053109;28;20203;-70
2021/10/10 07:50:29;;;;;;;0.10;0.10;;;;;;;;;;5057654;28;20220;-71
2021/10/10 07:52:56;;;;;;;0.17;0.17;;;;;;;;;;5054527;28;20260;-75
2021/10/10 07:55:23;;;;;;;0.10;0.10;;;;;;;;;;5049234;28;20206;-75
2021/10/10 07:57:49;;;;;;;0.20;0.20;;;;;;;;;;5053445;28;20470;-73
2021/10/10 08:00:15;;;;;;;0.10;0.10;;;;;;;;;;5054354;28;20576;-69
2021/10/10 08:02:49;;;;;;;1.33;1.33;;;;;;;;;;5054473;28;20224;-75
2021/10/10 08:05:15;;;;;;;0.10;0.10;;;;;;;;;;5052988;28;20233;-74
2021/10/10 08:07:41;;;;;;;0.43;0.43;;;;;;;;;;5048711;28;20273;-74
2021/10/10 08:10:09;;;;;;;0.10;0.10;;;;;;;;;;5057107;28;20205;-73
2021/10/10 08:12:35;;;;;;;0.10;0.10;;;;;;;;;;5051469;28;20239;-73
2021/10/10 08:15:02;;;;;;;0.10;0.10;;;;;;;;;;5054057;28;20261;-74
2021/10/10 08:17:28;;;;;;;0.10;0.10;;;;;;;;;;5056287;28;20258;-70
2021/10/10 08:19:54;;;;;;;0.10;0.10;;;;;;;;;;5052214;28;20207;-65
2021/10/10 08:22:20;;;;;;;0.30;0.30;;;;;;;;;;5048688;28;20261;-66
2021/10/10 08:24:46;;;;;;;0.20;0.20;;;;;;;;;;5051962;28;20211;-66
2021/10/10 08:27:14;;;;;;;0.10;0.10;;;;;;;;;;5055289;28;20205;-65
2021/10/10 08:29:40;;;;;;;0.40;0.40;;;;;;;;;;5053779;28;20204;-65
2021/10/10 08:32:07;;;;;;;0.10;0.10;;;;;;;;;;5048135;28;20272;-65
2021/10/10 08:34:36;;;;;;;0.10;0.10;;;;;;;;;;5051586;28;20210;-65
2021/10/10 08:37:02;;;;;;;0.10;0.10;;;;;;;;;;5047758;28;20203;-65
2021/10/10 08:39:29;;;;;;;0.40;0.40;;;;;;;;;;5047466;28;20436;-65
2021/10/10 08:41:57;;;;;;;0.80;0.80;;;;;;;;;;5050082;28;20264;-65
2021/10/10 08:44:29;;;;;;;0.10;0.10;;;;;;;;;;5047527;28;20456;-72
2021/10/10 08:47:00;;;;;;;0.10;0.10;;;;;;;;;;5050759;28;20202;-71
2021/10/10 08:49:27;;;;;;;3.60;3.50;;;;;;;;;;5056542;28;20369;-73
2021/10/10 08:51:53;;;;;;;0.10;0.10;;;;;;;;;;5049267;28;20207;-69
2021/10/10 08:54:19;;;;;;;0.10;0.10;;;;;;;;;;5047961;28;20335;-73
2021/10/10 08:56:45;;;;;;;0.10;0.10;;;;;;;;;;5050910;28;20450;-71
2021/10/10 08:59:12;;;;;;;0.10;0.10;;;;;;;;;;5050649;28;20250;-65
2021/10/10 09:01:39;;;;;;;0.00;0.00;;;;;;;;;;5047038;28;20205;-66
2021/10/10 09:04:06;;;;;;;0.10;0.10;;;;;;;;;;5052027;28;20306;-64
2021/10/10 09:06:32;;;;;;;0.10;0.10;;;;;;;;;;5048171;28;20204;-67
2021/10/10 09:09:13;;;;;;;0.10;0.10;;;;;;;;;;5055437;28;20433;-65
2021/10/10 09:11:42;;;;;;;0.10;0.10;;;;;;;;;;5047841;28;20208;-64
2021/10/10 09:14:09;;;;;;;0.10;0.10;;;;;;;;;;5053837;28;20607;-65
2021/10/10 09:16:36;;;;;;;0.10;0.10;;;;;;;;;;5054827;28;20318;-63
2021/10/10 09:19:23;;;;;;;0.10;0.10;;;;;;;;;;5053355;28;20287;-64
2021/10/10 09:22:00;;;;;;;2.75;2.65;;;;;;;;;;5048924;28;20199;-71
2021/10/10 09:24:26;;;;;;;0.10;0.10;;;;;;;;;;5050705;28;20292;-71
2021/10/10 09:26:53;;;;;;;0.00;0.00;;;;;;;;;;5051384;28;20276;-70
2021/10/10 09:29:31;;;;;;;0.08;0.08;;;;;;;;;;5051859;28;20257;-70
2021/10/10 09:32:03;;;;;;;0.10;0.10;;;;;;;;;;5052565;28;20410;-64
2021/10/10 09:34:29;;;;;;;0.03;0.03;;;;;;;;;;5051034;28;20209;-65
2021/10/10 09:36:58;;;;;;;0.10;0.10;;;;;;;;;;5052800;28;20430;-65
2021/10/10 09:39:34;;;;;;;0.75;0.75;;;;;;;;;;5054584;28;20293;-65
2021/10/10 09:42:02;;;;;;;0.08;0.08;;;;;;;;;;5050628;28;20272;-64
2021/10/10 09:44:34;;;;;;;0.03;0.03;;;;;;;;;;5057306;28;20477;-66
2021/10/10 09:47:01;;;;;;;0.10;0.10;;;;;;;;;;5054030;28;20221;-65
2021/10/10 09:49:28;;;;;;;0.10;0.10;;;;;;;;;;5051949;28;20231;-66
2021/10/10 09:51:55;;;;;;;0.00;0.00;;;;;;;;;;5059583;28;20324;-65
2021/10/10 09:54:21;;;;;;;0.03;0.03;;;;;;;;;;5052339;28;20219;-65
2021/10/10 09:57:06;;;;;;;0.00;0.00;;;;;;;;;;5045325;28;20256;-64
2021/10/10 09:59:32;;;;;;;0.00;0.00;;;;;;;;;;5044957;28;20247;-64
2021/10/10 10:01:58;;;;;;;0.22;0.22;;;;;;;;;;5056668;28;20206;-64
2021/10/10 10:04:26;;;;;;;0.10;0.10;;;;;;;;;;5052381;28;20232;-64
2021/10/10 10:06:53;;;;;;;0.03;0.03;;;;;;;;;;5056901;28;20276;-65
2021/10/10 10:09:19;;;;;;;0.10;0.10;;;;;;;;;;5047631;28;20401;-65
2021/10/10 10:11:46;;;;;;;0.10;0.10;;;;;;;;;;5053711;28;20244;-66
2021/10/10 10:14:14;;;;;;;0.00;0.00;;;;;;;;;;5051830;28;20216;-65
2021/10/10 10:16:41;;;;;;;0.10;0.10;;;;;;;;;;5055577;28;20252;-65
2021/10/10 10:19:10;;;;;;;0.30;0.30;;;;;;;;;;5049158;28;20564;-66
2021/10/10 10:21:39;;;;;;;0.10;0.10;;;;;;;;;;5054079;28;20423;-65
2021/10/10 10:24:08;;;;;;;0.10;0.10;;;;;;;;;;5045834;28;20234;-65
2021/10/10 10:26:35;;;;;;;0.00;0.00;;;;;;;;;;5052884;28;20513;-64
2021/10/10 10:29:02;;;;;;;0.10;0.10;;;;;;;;;;5059554;28;20452;-65
2021/10/10 10:31:31;;;;;;;0.10;0.10;;;;;;;;;;5048313;28;20237;-65
2021/10/10 10:34:12;;;;;;;0.10;0.10;;;;;;;;;;5047379;28;20251;-63
2021/10/10 10:36:51;;;;;;;0.22;0.22;;;;;;;;;;5046874;28;20252;-64
2021/10/10 10:39:32;;;;;;;0.00;0.00;;;;;;;;;;5054777;28;20245;-64
2021/10/10 10:41:58;;;;;;;0.00;0.00;;;;;;;;;;5051216;28;20212;-65
2021/10/10 10:44:38;;;;;;;0.05;0.05;;;;;;;;;;5050022;28;20255;-66
2021/10/10 10:47:06;;;;;;;0.10;0.10;;;;;;;;;;5043433;28;20549;-66
2021/10/10 10:50:01;;;;;;;0.10;0.10;;;;;;;;;;5048089;28;20207;-63
2021/10/10 10:52:29;;;;;;;0.05;0.05;;;;;;;;;;5025105;28;20390;-65
2021/10/10 10:54:55;;;;;;;0.10;0.10;;;;;;;;;;5045885;28;20501;-64
2021/10/10 10:57:28;;;;;;;0.10;0.10;;;;;;;;;;5047079;28;20516;-64
2021/10/10 10:59:58;;;;;;;0.00;0.00;;;;;;;;;;5043957;28;20215;-64
2021/10/10 11:02:47;;;;;;;0.00;0.00;;;;;;;;;;5053109;28;20204;-65
2021/10/10 11:05:28;;;;;;;0.10;0.10;;;;;;;;;;5052649;28;20295;-65
2021/10/10 11:07:54;;;;;;;1.65;1.65;;;;;;;;;;5054211;28;20230;-64
2021/10/10 11:10:21;;;;;;;4.20;3.83;;;;;;;;;;5051751;28;20205;-66
2021/10/10 11:12:52;;;;;;;0.00;0.00;;;;;;;;;;5054999;28;20211;-65
2021/10/10 11:15:18;;;;;;;0.00;0.00;;;;;;;;;;5050737;28;20192;-65
2021/10/10 11:17:53;;;;;;;0.45;0.45;;;;;;;;;;5046946;28;20448;-64
2021/10/10 11:20:19;;;;;;;0.00;0.00;;;;;;;;;;5059191;28;20203;-65
2021/10/10 11:22:45;;;;;;;0.00;0.00;;;;;;;;;;5060340;28;21274;-64
2021/10/10 11:25:12;;;;;;;0.00;0.00;;;;;;;;;;5048206;28;20224;-66
2021/10/10 11:27:38;;;;;;;0.00;0.00;;;;;;;;;;5049183;28;20207;-66
2021/10/10 11:30:06;;;;;;;0.10;0.10;;;;;;;;;;5051833;28;20204;-65
2021/10/10 11:32:32;;;;;;;0.00;0.00;;;;;;;;;;5047181;28;20291;-64
2021/10/10 11:35:00;;;;;;;0.03;0.03;;;;;;;;;;5049586;28;20295;-65
2021/10/10 11:37:26;;;;;;;0.00;0.00;;;;;;;;;;5054531;28;20212;-64
2021/10/10 11:39:52;;;;;;;0.00;0.00;;;;;;;;;;5058288;28;20209;-65
2021/10/10 11:42:18;;;;;;;0.00;0.00;;;;;;;;;;5051483;28;20484;-65
2021/10/10 11:44:45;;;;;;;0.00;0.00;;;;;;;;;;5046906;28;20286;-65
2021/10/10 11:47:17;;;;;;;0.00;0.00;;;;;;;;;;5055230;28;20227;-65
2021/10/10 11:49:45;;;;;;;0.00;0.00;;;;;;;;;;5052352;28;20476;-65
2021/10/10 11:52:22;;;;;;;0.00;0.00;;;;;;;;;;5057122;28;20272;-65
2021/10/10 11:54:56;;;;;;;0.00;0.00;;;;;;;;;;5049517;28;20242;-65
2021/10/10 11:57:22;;;;;;;0.00;0.00;;;;;;;;;;5050889;28;20206;-66
2021/10/10 11:59:50;;;;;;;0.10;0.10;;;;;;;;;;5048015;28;20204;-65
2021/10/10 12:02:16;;;;;;;0.00;0.00;;;;;;;;;;5049312;28;20209;-65
2021/10/10 12:04:42;;;;;;;0.10;0.10;;;;;;;;;;5062202;28;20234;-65
2021/10/10 12:07:08;;;;;;;0.08;0.08;;;;;;;;;;5061923;28;20248;-66
2021/10/10 12:09:46;;;;;;;0.10;0.10;;;;;;;;;;5056168;28;20425;-65
2021/10/10 12:12:14;;;;;;;0.10;0.10;;;;;;;;;;5054655;28;20223;-65
2021/10/10 12:14:41;;;;;;;0.10;0.10;;;;;;;;;;5049794;28;20289;-64
2021/10/10 12:17:07;;;;;;;0.10;0.10;;;;;;;;;;5053133;28;20554;-65
2021/10/10 12:19:41;;;;;;;0.00;0.00;;;;;;;;;;5051448;28;20203;-65
2021/10/10 12:22:07;;;;;;;0.20;0.20;;;;;;;;;;5049303;28;20236;-65
2021/10/10 12:24:44;;;;;;;1.55;1.55;;;;;;;;;;5059359;28;20358;-65
2021/10/10 12:27:10;;;;;;;0.10;0.10;;;;;;;;;;5048615;28;20282;-65
2021/10/10 12:29:43;;;;;;;0.05;0.05;;;;;;;;;;5043109;28;20473;-63
2021/10/10 12:32:17;;;;;;;0.10;0.10;;;;;;;;;;5051038;28;20227;-65
2021/10/10 12:34:43;;;;;;;0.10;0.10;;;;;;;;;;5053816;28;20193;-64
2021/10/10 12:37:16;;;;;;;0.10;0.10;;;;;;;;;;5048749;28;20220;-65
2021/10/10 12:39:45;;;;;;;0.10;0.10;;;;;;;;;;5058336;28;20314;-65
2021/10/10 12:42:12;;;;;;;0.10;0.10;;;;;;;;;;5055196;28;20253;-65
2021/10/10 12:44:38;;;;;;;0.00;0.00;;;;;;;;;;5056866;28;20239;-65
2021/10/10 12:47:06;;;;;;;0.40;0.40;;;;;;;;;;5051511;28;20543;-64
2021/10/10 12:49:33;;;;;;;0.10;0.10;;;;;;;;;;5052719;28;20200;-64
2021/10/10 12:52:00;;;;;;;0.10;0.10;;;;;;;;;;5054592;28;20203;-66
2021/10/10 12:54:28;;;;;;;0.10;0.10;;;;;;;;;;5052281;28;20199;-65
2021/10/10 12:57:03;;;;;;;0.07;0.07;;;;;;;;;;5046487;28;20211;-65
2021/10/10 12:59:29;;;;;;;0.08;0.08;;;;;;;;;;5050451;28;20278;-66
2021/10/10 13:01:55;;;;;;;0.10;0.10;;;;;;;;;;5052332;28;20207;-66
2021/10/10 13:04:21;;;;;;;0.10;0.10;;;;;;;;;;5053812;28;20559;-64
2021/10/10 13:06:48;;;;;;;0.00;0.00;;;;;;;;;;5047801;28;20560;-65
2021/10/10 13:09:15;;;;;;;0.10;0.10;;;;;;;;;;5051785;28;20247;-66
2021/10/10 13:11:42;;;;;;;0.10;0.10;;;;;;;;;;5047733;28;20206;-65
2021/10/10 13:14:10;;;;;;;0.10;0.10;;;;;;;;;;5055949;28;20294;-65
2021/10/10 13:16:36;;;;;;;0.10;0.10;;;;;;;;;;5055580;28;20207;-64
2021/10/10 13:19:03;;;;;;;0.10;0.10;;;;;;;;;;5055936;28;20203;-64
2021/10/10 13:21:29;;;;;;;0.10;0.10;;;;;;;;;;5052181;28;20491;-64
2021/10/10 13:23:55;;;;;;;0.10;0.10;;;;;;;;;;5048388;28;20313;-65
2021/10/10 13:26:22;;;;;;;0.10;0.10;;;;;;;;;;5045672;28;20203;-65
2021/10/10 13:28:48;;;;;;;0.10;0.10;;;;;;;;;;5055096;28;20204;-65
2021/10/10 13:31:16;;;;;;;0.10;0.10;;;;;;;;;;5052556;28;20201;-64
2021/10/10 13:33:42;;;;;;;0.10;0.10;;;;;;;;;;5052988;28;20207;-65
2021/10/10 13:36:09;;;;;;;0.07;0.07;;;;;;;;;;5051770;28;20338;-65
2021/10/10 13:38:35;;;;;;;0.10;0.10;;;;;;;;;;5052165;28;20567;-64
2021/10/10 13:41:02;;;;;;;0.10;0.10;;;;;;;;;;5049639;28;20502;-65
2021/10/10 13:43:29;;;;;;;0.20;0.20;;;;;;;;;;5051352;28;20262;-66
2021/10/10 13:45:57;;;;;;;0.10;0.10;;;;;;;;;;5043054;28;20627;-66
2021/10/10 13:48:24;;;;;;;0.10;0.10;;;;;;;;;;5047395;28;20497;-65
2021/10/10 13:50:51;;;;;;;0.03;0.03;;;;;;;;;;5045109;28;20207;-65
2021/10/10 13:53:17;;;;;;;0.10;0.10;;;;;;;;;;5043092;28;20500;-64
2021/10/10 13:55:43;;;;;;;0.05;0.05;;;;;;;;;;5051716;28;20207;-65
2021/10/10 13:58:10;;;;;;;0.22;0.22;;;;;;;;;;5045176;28;20204;-66
2021/10/10 14:00:36;;;;;;;0.10;0.10;;;;;;;;;;5049744;28;20201;-67
2021/10/10 14:03:03;;;;;;;0.10;0.10;;;;;;;;;;5054004;28;20242;-66
2021/10/10 14:05:32;;;;;;;0.05;0.05;;;;;;;;;;5054868;28;20224;-66
2021/10/10 14:07:58;;;;;;;2.95;2.75;;;;;;;;;;5048312;28;20200;-65
2021/10/10 14:10:24;;;;;;;0.00;0.00;;;;;;;;;;5045334;28;20208;-65
2021/10/10 14:12:50;;;;;;;0.10;0.10;;;;;;;;;;5055070;28;20212;-65
2021/10/10 14:15:16;;;;;;;0.00;0.00;;;;;;;;;;5054777;28;20519;-65
2021/10/10 14:17:43;;;;;;;0.10;0.10;;;;;;;;;;5053256;28;20200;-65
2021/10/10 14:20:09;;;;;;;0.10;0.10;;;;;;;;;;5053838;28;20211;-65
2021/10/10 14:22:37;;;;;;;0.10;0.10;;;;;;;;;;5054752;28;20431;-66
2021/10/10 14:25:03;;;;;;;0.10;0.10;;;;;;;;;;5049313;28;20222;-66
2021/10/10 14:27:30;;;;;;;0.10;0.10;;;;;;;;;;5051854;28;20389;-65
2021/10/10 14:29:56;;;;;;;0.10;0.10;;;;;;;;;;5053199;28;20252;-65
2021/10/10 14:32:22;;;;;;;0.10;0.10;;;;;;;;;;5047126;28;20211;-65
2021/10/10 14:34:48;;;;;;;0.05;0.05;;;;;;;;;;5050733;28;20253;-65
2021/10/10 14:37:14;;;;;;;0.00;0.00;;;;;;;;;;5054632;28;20272;-64
2021/10/10 14:39:42;;;;;;;0.10;0.10;;;;;;;;;;5043993;28;20231;-65
2021/10/10 14:42:10;;;;;;;0.00;0.00;;;;;;;;;;5055346;28;20237;-65
2021/10/10 14:44:41;;;;;;;0.10;0.10;;;;;;;;;;5049628;28;20238;-64
2021/10/10 14:47:26;;;;;;;0.10;0.10;;;;;;;;;;5047397;28;20283;-65